Time;durP1;ratioP1;P1;durP2;ratioP2;P2;SDS_P1;SDS_P2;PMS_P1;PMS_P2;Temp;Humidity;BMP_temperature;BMP_pressure;BME280_temperature;BME280_humidity;BME280_pressure;Samples;Min_cycle;Max_cycle;Signal;HPM_P1;HPM_P2
2022/07/07 00:00:27;;;;;;;10.93;5.80;;;10.60;99.90;;;;;;4434835;28;659752;-62
2022/07/07 00:03:16;;;;;;;7.53;5.70;;;10.60;99.90;;;;;;4430482;28;658671;-62
2022/07/07 00:06:03;;;;;;;7.83;6.07;;;10.60;99.90;;;;;;4408716;28;658767;-62
2022/07/07 00:08:54;;;;;;;14.32;5.60;;;10.60;99.90;;;;;;4412407;28;657782;-64
2022/07/07 00:11:41;;;;;;;13.07;5.90;;;10.50;99.90;;;;;;4411357;28;658599;-63
2022/07/07 00:14:28;;;;;;;15.02;5.55;;;10.40;99.90;;;;;;4430312;28;658994;-62
2022/07/07 00:17:15;;;;;;;7.17;5.47;;;10.40;99.90;;;;;;4411273;28;658608;-63
2022/07/07 00:20:05;;;;;;;13.37;6.10;;;10.50;99.90;;;;;;4431785;28;658760;-63
2022/07/07 00:22:52;;;;;;;10.17;5.97;;;10.40;99.90;;;;;;4407366;28;660423;-63
2022/07/07 00:25:39;;;;;;;13.43;5.87;;;10.40;99.90;;;;;;4430213;28;659084;-62
2022/07/07 00:28:26;;;;;;;10.00;5.63;;;10.40;99.90;;;;;;4411543;28;658886;-63
2022/07/07 00:31:13;;;;;;;8.97;5.50;;;10.40;99.90;;;;;;4429783;28;659563;-62
2022/07/07 00:34:00;;;;;;;9.97;5.17;;;10.50;99.90;;;;;;4412373;28;657651;-63
2022/07/07 00:36:49;;;;;;;8.23;5.50;;;10.60;99.90;;;;;;4430594;28;659003;-63
2022/07/07 00:39:36;;;;;;;10.97;6.27;;;10.60;99.90;;;;;;4414142;28;658056;-63
2022/07/07 00:42:23;;;;;;;7.13;5.57;;;10.60;99.90;;;;;;4433186;28;659768;-62
2022/07/07 00:45:11;;;;;;;16.03;6.20;;;10.60;99.90;;;;;;4414539;28;657758;-65
2022/07/07 00:47:58;;;;;;;8.57;5.77;;;10.40;99.90;;;;;;4419143;28;659608;-62
2022/07/07 00:50:46;;;;;;;8.87;6.00;;;10.50;99.90;;;;;;4400008;28;657189;-64
2022/07/07 00:53:35;;;;;;;9.70;6.10;;;10.50;99.90;;;;;;4416437;28;657549;-63
2022/07/07 00:56:22;;;;;;;9.07;5.30;;;10.60;99.90;;;;;;4393197;28;658750;-62
2022/07/07 00:59:09;;;;;;;10.07;5.07;;;10.50;99.90;;;;;;4416292;28;657207;-62
2022/07/07 01:01:57;;;;;;;7.67;5.27;;;10.50;99.90;;;;;;4396088;28;658522;-63
2022/07/07 01:04:44;;;;;;;10.53;5.53;;;10.50;99.90;;;;;;4416121;28;657374;-63
2022/07/07 01:07:31;;;;;;;14.67;5.43;;;10.60;99.90;;;;;;4395961;28;659018;-63
2022/07/07 01:10:20;;;;;;;7.00;5.27;;;10.70;99.90;;;;;;4414632;28;659712;-63
2022/07/07 01:13:07;;;;;;;9.83;5.67;;;10.70;99.90;;;;;;4393272;28;658233;-62
2022/07/07 01:15:54;;;;;;;10.87;5.77;;;10.70;99.90;;;;;;4416134;28;657188;-62
2022/07/07 01:18:42;;;;;;;15.27;6.23;;;10.80;99.90;;;;;;4395587;28;658829;-63
2022/07/07 01:21:29;;;;;;;11.07;6.27;;;10.80;99.90;;;;;;4414524;28;658655;-62
2022/07/07 01:24:17;;;;;;;14.60;6.13;;;10.90;99.90;;;;;;4395763;28;659930;-63
2022/07/07 01:27:06;;;;;;;8.73;6.20;;;10.80;99.90;;;;;;4412725;28;658605;-64
2022/07/07 01:29:54;;;;;;;14.97;5.63;;;10.90;99.90;;;;;;4419885;28;658508;-62
2022/07/07 01:32:41;;;;;;;8.60;5.90;;;10.80;99.90;;;;;;4395504;28;658720;-63
2022/07/07 01:35:28;;;;;;;10.05;5.60;;;10.80;99.90;;;;;;4415982;28;658775;-62
2022/07/07 01:38:15;;;;;;;11.97;5.60;;;10.90;99.90;;;;;;4395438;28;658793;-63
2022/07/07 01:41:04;;;;;;;8.13;5.43;;;11.00;99.90;;;;;;4414360;28;660120;-63
2022/07/07 01:43:51;;;;;;;8.20;6.07;;;10.90;99.90;;;;;;4395993;28;657447;-63
2022/07/07 01:46:38;;;;;;;6.50;5.63;;;10.90;99.90;;;;;;4432452;28;658645;-62
2022/07/07 01:49:25;;;;;;;9.47;6.70;;;10.90;99.90;;;;;;4417267;28;657981;-64
2022/07/07 01:52:12;;;;;;;16.73;5.90;;;10.90;99.90;;;;;;4437580;28;658893;-62
2022/07/07 01:54:59;;;;;;;9.40;6.03;;;10.90;99.90;;;;;;4432243;28;658483;-62
2022/07/07 01:57:48;;;;;;;11.33;6.73;;;10.90;99.90;;;;;;4414772;28;657749;-63
2022/07/07 02:00:35;;;;;;;9.73;7.00;;;10.80;99.90;;;;;;4418804;28;659169;-64
2022/07/07 02:03:22;;;;;;;10.93;6.90;;;10.80;99.90;;;;;;4437640;28;658554;-62
2022/07/07 02:06:09;;;;;;;12.33;6.57;;;10.80;99.90;;;;;;4432172;28;658596;-63
2022/07/07 02:08:56;;;;;;;12.47;6.77;;;10.60;99.90;;;;;;4409414;28;659082;-63
2022/07/07 02:11:43;;;;;;;13.40;6.80;;;10.60;99.90;;;;;;4432586;28;659845;-63
2022/07/07 02:14:32;;;;;;;11.67;6.93;;;10.60;99.90;;;;;;4412956;28;659448;-63
2022/07/07 02:17:19;;;;;;;11.27;7.00;;;10.70;99.90;;;;;;4431659;28;658474;-62
2022/07/07 02:20:07;;;;;;;9.70;6.73;;;10.60;99.90;;;;;;4413228;28;658807;-63
2022/07/07 02:22:54;;;;;;;9.55;7.25;;;10.60;99.90;;;;;;4433019;28;658143;-62
2022/07/07 02:25:41;;;;;;;17.27;7.63;;;10.60;99.90;;;;;;4413677;28;657629;-63
2022/07/07 02:28:28;;;;;;;12.03;7.77;;;10.60;99.90;;;;;;4431548;28;659549;-63
2022/07/07 02:31:17;;;;;;;11.10;7.17;;;10.60;99.90;;;;;;4412918;28;658636;-64
2022/07/07 02:34:04;;;;;;;13.33;8.80;;;10.60;99.90;;;;;;4431945;28;658443;-64
2022/07/07 02:36:51;;;;;;;15.50;9.47;;;10.70;99.90;;;;;;4412628;28;658381;-64
2022/07/07 02:39:38;;;;;;;14.27;9.97;;;10.70;99.90;;;;;;4431474;28;658869;-64
2022/07/07 02:42:26;;;;;;;17.97;7.27;;;10.60;99.90;;;;;;4412622;28;659277;-64
2022/07/07 02:45:13;;;;;;;16.37;7.73;;;10.50;99.90;;;;;;4428198;28;659116;-63
2022/07/07 02:48:01;;;;;;;13.00;7.77;;;10.40;99.90;;;;;;4402990;28;658619;-65
2022/07/07 02:50:49;;;;;;;12.43;7.90;;;10.50;99.90;;;;;;4413205;28;658799;-63
2022/07/07 02:53:36;;;;;;;14.77;7.30;;;10.70;99.90;;;;;;4393833;28;658993;-63
2022/07/07 02:56:23;;;;;;;15.37;9.97;;;10.70;99.90;;;;;;4413008;28;660046;-64
2022/07/07 02:59:10;;;;;;;14.83;8.87;;;10.70;99.90;;;;;;4394266;28;659377;-65
2022/07/07 03:01:57;;;;;;;12.98;9.73;;;10.80;99.90;;;;;;4416485;28;658804;-64
2022/07/07 03:04:46;;;;;;;14.97;8.70;;;10.90;99.90;;;;;;4412496;28;658538;-64
2022/07/07 03:07:33;;;;;;;14.53;8.87;;;10.90;99.90;;;;;;4390088;28;659486;-64
2022/07/07 03:10:20;;;;;;;16.00;8.03;;;10.90;99.90;;;;;;4394242;28;658577;-65
2022/07/07 03:13:07;;;;;;;13.70;8.33;;;11.00;99.90;;;;;;4417043;28;659030;-63
2022/07/07 03:15:54;;;;;;;14.00;10.17;;;11.10;99.90;;;;;;4412531;28;658495;-63
2022/07/07 03:18:41;;;;;;;19.73;9.00;;;11.20;99.90;;;;;;4392871;28;659583;-64
2022/07/07 03:21:30;;;;;;;16.87;9.80;;;11.20;99.90;;;;;;4412549;28;658565;-63
2022/07/07 03:24:17;;;;;;;17.40;9.90;;;11.20;99.90;;;;;;4390327;28;659716;-63
2022/07/07 03:27:05;;;;;;;14.40;9.40;;;11.30;99.90;;;;;;4412688;28;658903;-64
2022/07/07 03:29:52;;;;;;;11.23;8.25;;;11.30;99.90;;;;;;4393812;28;659284;-64
2022/07/07 03:32:39;;;;;;;16.47;8.13;;;11.20;99.90;;;;;;4412144;28;659019;-64
2022/07/07 03:35:26;;;;;;;15.50;8.43;;;11.30;99.90;;;;;;4393635;28;659136;-64
2022/07/07 03:38:15;;;;;;;16.30;10.37;;;11.30;99.90;;;;;;4412247;28;659027;-64
2022/07/07 03:41:02;;;;;;;17.17;11.20;;;11.30;99.90;;;;;;4388048;28;660246;-64
2022/07/07 03:43:49;;;;;;;16.80;11.50;;;11.40;99.90;;;;;;4410906;28;660302;-63
2022/07/07 03:46:36;;;;;;;16.60;11.17;;;11.40;99.90;;;;;;4406090;28;659747;-64
2022/07/07 03:49:23;;;;;;;18.55;11.98;;;11.50;99.90;;;;;;4429335;28;660227;-64
2022/07/07 03:52:10;;;;;;;17.87;11.93;;;11.50;99.90;;;;;;4410102;28;659580;-64
2022/07/07 03:54:59;;;;;;;15.90;11.40;;;11.50;99.90;;;;;;4428913;28;661003;-63
2022/07/07 03:57:46;;;;;;;17.60;12.07;;;11.40;99.90;;;;;;4408718;28;660211;-64
2022/07/07 04:00:33;;;;;;;19.88;12.00;;;11.50;99.90;;;;;;4430332;28;659783;-64
2022/07/07 04:03:20;;;;;;;15.33;11.80;;;11.50;99.90;;;;;;4412182;28;659795;-66
2022/07/07 04:06:07;;;;;;;22.27;12.30;;;11.70;99.90;;;;;;4433137;28;660805;-64
2022/07/07 04:08:54;;;;;;;16.53;12.67;;;11.80;99.90;;;;;;4429238;28;659963;-64
2022/07/07 04:11:43;;;;;;;24.17;16.63;;;11.80;99.90;;;;;;4410317;28;660296;-64
2022/07/07 04:14:30;;;;;;;23.07;15.13;;;12.00;99.90;;;;;;4411188;28;659736;-66
2022/07/07 04:17:17;;;;;;;21.80;15.73;;;12.10;99.90;;;;;;4433065;28;660264;-64
2022/07/07 04:20:05;;;;;;;25.93;18.07;;;12.30;99.90;;;;;;4428779;28;659127;-64
2022/07/07 04:22:52;;;;;;;20.73;14.83;;;12.50;99.90;;;;;;4406008;28;660671;-64
2022/07/07 04:25:39;;;;;;;20.07;16.17;;;12.70;99.90;;;;;;4428925;28;660489;-64
2022/07/07 04:28:29;;;;;;;29.55;17.67;;;12.90;99.90;;;;;;4409852;28;660237;-64
2022/07/07 04:31:16;;;;;;;26.60;17.30;;;13.20;99.90;;;;;;4409969;28;659625;-64
2022/07/07 04:34:05;;;;;;;33.07;20.67;;;13.40;99.90;;;;;;4432763;28;660657;-64
2022/07/07 04:36:52;;;;;;;32.63;20.83;;;13.60;99.90;;;;;;4406355;28;661003;-64
2022/07/07 04:39:39;;;;;;;30.70;20.20;;;13.70;99.90;;;;;;4428625;28;659616;-64
2022/07/07 04:42:26;;;;;;;25.50;17.87;;;13.70;99.90;;;;;;4409834;28;659340;-64
2022/07/07 04:45:15;;;;;;;29.37;17.77;;;13.90;99.90;;;;;;4425246;28;660276;-64
2022/07/07 04:48:02;;;;;;;24.57;19.57;;;13.90;99.90;;;;;;4388752;28;661412;-64
2022/07/07 04:50:49;;;;;;;36.57;21.47;;;14.00;99.90;;;;;;4410204;28;660127;-64
2022/07/07 04:53:36;;;;;;;32.37;19.70;;;14.10;99.90;;;;;;4392421;28;659721;-64
2022/07/07 04:56:23;;;;;;;35.10;23.90;;;14.30;99.90;;;;;;4410664;28;660505;-64
2022/07/07 04:59:10;;;;;;;40.27;27.50;;;14.20;99.90;;;;;;4392356;28;659362;-66
2022/07/07 05:01:58;;;;;;;41.42;27.83;;;14.40;99.90;;;;;;4415412;28;660600;-64
2022/07/07 05:04:46;;;;;;;35.37;27.03;;;14.50;99.90;;;;;;4392227;28;659600;-64
2022/07/07 05:07:33;;;;;;;40.47;26.50;;;14.50;99.90;;;;;;4414457;28;660520;-64
2022/07/07 05:10:20;;;;;;;36.90;27.07;;;14.50;99.90;;;;;;4396127;28;659816;-65
2022/07/07 05:13:07;;;;;;;33.65;24.02;;;14.70;99.90;;;;;;4414708;28;660976;-64
2022/07/07 05:15:54;;;;;;;31.57;22.47;;;14.80;99.90;;;;;;4410845;28;659271;-64
2022/07/07 05:18:43;;;;;;;29.13;20.00;;;15.00;99.90;;;;;;4388232;28;659942;-64
2022/07/07 05:21:30;;;;;;;32.00;18.83;;;15.00;99.90;;;;;;4400312;28;659980;-65
2022/07/07 05:24:17;;;;;;;33.63;21.27;;;15.10;99.90;;;;;;4416827;28;659996;-64
2022/07/07 05:27:05;;;;;;;35.90;22.10;;;15.00;99.90;;;;;;4413983;28;659617;-64
2022/07/07 05:29:52;;;;;;;34.65;22.17;;;15.10;99.90;;;;;;4395452;28;660273;-64
2022/07/07 05:32:39;;;;;;;27.57;21.00;;;15.20;99.90;;;;;;4413975;28;659528;-64
2022/07/07 05:35:28;;;;;;;35.37;20.70;;;15.40;99.90;;;;;;4392207;28;659499;-64
2022/07/07 05:38:15;;;;;;;34.63;23.83;;;15.60;99.90;;;;;;4404522;28;659934;-66
2022/07/07 05:41:03;;;;;;;34.73;24.87;;;15.40;99.90;;;;;;4414252;28;660296;-64
2022/07/07 05:43:50;;;;;;;37.80;24.60;;;15.60;99.90;;;;;;4394962;28;659838;-64
2022/07/07 05:46:37;;;;;;;35.27;24.77;;;15.70;99.90;;;;;;4426833;28;660545;-63
2022/07/07 05:49:25;;;;;;;31.50;22.37;;;15.80;99.90;;;;;;4426996;28;659543;-65
2022/07/07 05:52:14;;;;;;;27.53;19.67;;;15.80;99.90;;;;;;4434047;28;660180;-63
2022/07/07 05:55:01;;;;;;;30.90;18.93;;;15.90;99.90;;;;;;4411274;28;660320;-64
2022/07/07 05:57:48;;;;;;;28.37;18.53;;;15.80;99.90;;;;;;4430509;28;660978;-63
2022/07/07 06:00:35;;;;;;;22.67;16.50;;;16.00;99.90;;;;;;4411700;28;659952;-65
2022/07/07 06:03:23;;;;;;;24.80;15.40;;;16.10;99.90;;;;;;4430087;28;660957;-64
2022/07/07 06:06:10;;;;;;;25.47;14.93;;;16.20;99.90;;;;;;4424701;28;660256;-65
2022/07/07 06:08:58;;;;;;;26.83;14.50;;;16.50;99.90;;;;;;4434480;28;660069;-63
2022/07/07 06:11:46;;;;;;;22.03;13.63;;;16.70;99.90;;;;;;4411137;28;659863;-63
2022/07/07 06:14:33;;;;;;;30.50;13.93;;;16.70;99.90;;;;;;4434168;28;660330;-64
2022/07/07 06:17:20;;;;;;;19.90;12.70;;;16.80;99.90;;;;;;4410223;28;660151;-64
2022/07/07 06:20:09;;;;;;;19.87;13.33;;;16.70;99.90;;;;;;4430106;28;660608;-63
2022/07/07 06:22:56;;;;;;;28.60;15.50;;;16.90;99.90;;;;;;4410816;28;660060;-64
2022/07/07 06:25:45;;;;;;;22.00;14.53;;;16.90;99.90;;;;;;4429240;28;660418;-63
2022/07/07 06:28:32;;;;;;;27.30;14.57;;;17.30;99.90;;;;;;4388914;28;660787;-64
2022/07/07 06:31:20;;;;;;;23.47;14.13;;;17.50;99.90;;;;;;4401026;28;659911;-65
2022/07/07 06:34:07;;;;;;;19.60;13.37;;;17.60;99.90;;;;;;4429125;28;660800;-64
2022/07/07 06:36:56;;;;;;;22.33;13.07;;;17.70;99.90;;;;;;4409500;28;660222;-65
2022/07/07 06:39:43;;;;;;;17.40;11.37;;;18.00;99.90;;;;;;4432579;28;660604;-65
2022/07/07 06:42:31;;;;;;;19.87;11.53;;;18.00;99.90;;;;;;4416237;28;659707;-66
2022/07/07 06:45:19;;;;;;;19.43;11.70;;;18.00;99.90;;;;;;4430096;28;659938;-64
2022/07/07 06:48:07;;;;;;;21.93;12.73;;;18.10;99.90;;;;;;4410172;28;659700;-64
2022/07/07 06:50:54;;;;;;;18.90;11.87;;;18.10;99.90;;;;;;4433064;28;659729;-63
2022/07/07 06:53:41;;;;;;;23.10;13.40;;;18.20;99.90;;;;;;4406404;28;660599;-63
2022/07/07 06:56:28;;;;;;;24.10;12.73;;;18.30;99.90;;;;;;4429438;28;659870;-63
2022/07/07 06:59:17;;;;;;;26.03;14.03;;;18.00;99.90;;;;;;4410170;28;659627;-64
2022/07/07 07:02:05;;;;;;;25.30;13.27;;;18.10;99.90;;;;;;4428346;28;659718;-63
2022/07/07 07:04:52;;;;;;;20.87;12.70;;;18.20;99.90;;;;;;4406247;28;661506;-64
2022/07/07 07:07:39;;;;;;;21.07;12.57;;;17.90;99.90;;;;;;4429144;28;660350;-63
2022/07/07 07:10:26;;;;;;;23.33;10.90;;;18.20;99.90;;;;;;4408425;28;659651;-64
2022/07/07 07:13:13;;;;;;;17.07;11.07;;;18.60;99.90;;;;;;4431859;28;661050;-63
2022/07/07 07:16:02;;;;;;;18.00;10.13;;;19.00;99.90;;;;;;4413176;28;659817;-65
2022/07/07 07:18:49;;;;;;;28.63;11.87;;;19.20;99.90;;;;;;4433072;28;660312;-63
2022/07/07 07:21:36;;;;;;;16.03;9.10;;;19.30;99.90;;;;;;4410068;28;660140;-63
2022/07/07 07:24:23;;;;;;;21.77;8.13;;;19.70;99.90;;;;;;4429716;28;659572;-63
2022/07/07 07:27:11;;;;;;;16.23;9.07;;;19.70;99.30;;;;;;4410925;28;658925;-64
2022/07/07 07:29:58;;;;;;;16.47;8.30;;;19.60;99.90;;;;;;4434324;28;659469;-64
2022/07/07 07:32:46;;;;;;;15.67;7.10;;;19.90;99.90;;;;;;4419323;28;658891;-65
2022/07/07 07:35:33;;;;;;;13.30;7.07;;;19.90;99.90;;;;;;4430022;28;659038;-64
2022/07/07 07:38:21;;;;;;;9.67;7.00;;;19.60;99.90;;;;;;4410793;28;658902;-65
2022/07/07 07:41:09;;;;;;;11.33;6.70;;;19.80;99.90;;;;;;4434127;28;659109;-64
2022/07/07 07:43:56;;;;;;;13.60;6.50;;;20.10;99.90;;;;;;4409466;28;659148;-64
2022/07/07 07:46:43;;;;;;;12.93;7.10;;;20.10;99.90;;;;;;4414233;28;660099;-63
2022/07/07 07:49:32;;;;;;;13.87;6.47;;;20.30;99.90;;;;;;4393236;28;658470;-65
2022/07/07 07:52:19;;;;;;;10.57;4.97;;;20.50;99.90;;;;;;4411750;28;659010;-64
2022/07/07 07:55:07;;;;;;;9.90;4.87;;;20.60;99.90;;;;;;4393116;28;658529;-64
2022/07/07 07:57:54;;;;;;;9.30;4.60;;;20.10;99.60;;;;;;4413221;28;658255;-64
2022/07/07 08:00:41;;;;;;;7.67;5.13;;;20.20;99.90;;;;;;4394842;28;658410;-64
2022/07/07 08:03:28;;;;;;;9.30;4.83;;;19.90;99.90;;;;;;4412989;28;659007;-65
2022/07/07 08:06:17;;;;;;;7.23;4.73;;;20.20;99.90;;;;;;4394399;28;658046;-64
2022/07/07 08:09:04;;;;;;;9.20;4.93;;;20.50;95.70;;;;;;4413021;28;657827;-64
2022/07/07 08:11:51;;;;;;;6.17;4.93;;;20.10;97.40;;;;;;4393869;28;657583;-64
2022/07/07 08:14:38;;;;;;;11.70;5.07;;;19.80;97.20;;;;;;4413067;28;658811;-64
2022/07/07 08:17:25;;;;;;;9.07;6.10;;;20.30;99.90;;;;;;4392989;28;659041;-66
2022/07/07 08:20:12;;;;;;;9.27;5.43;;;20.90;97.30;;;;;;4417194;28;658073;-64
2022/07/07 08:23:01;;;;;;;9.63;5.20;;;20.50;98.40;;;;;;4412800;28;657851;-64
2022/07/07 08:25:48;;;;;;;9.40;4.60;;;20.70;99.50;;;;;;4390424;28;657475;-64
2022/07/07 08:28:35;;;;;;;12.40;3.70;;;20.60;99.10;;;;;;4401139;28;658144;-65
2022/07/07 08:31:22;;;;;;;8.90;3.77;;;20.10;98.40;;;;;;4415906;28;659098;-64
2022/07/07 08:34:09;;;;;;;6.07;3.57;;;20.70;95.00;;;;;;4412876;28;657554;-64
2022/07/07 08:36:56;;;;;;;6.13;3.90;;;20.50;97.90;;;;;;4394043;28;657649;-64
2022/07/07 08:39:45;;;;;;;7.20;4.07;;;21.20;99.90;;;;;;4413274;28;658490;-63
2022/07/07 08:42:32;;;;;;;9.87;3.97;;;21.30;93.00;;;;;;4389799;28;658397;-64
2022/07/07 08:45:19;;;;;;;8.07;4.40;;;21.10;96.50;;;;;;4416991;28;658041;-64
2022/07/07 08:48:06;;;;;;;12.23;4.23;;;21.00;97.40;;;;;;4411427;28;657632;-64
2022/07/07 08:50:53;;;;;;;8.00;4.50;;;21.10;93.00;;;;;;4428843;28;659510;-64
2022/07/07 08:53:40;;;;;;;12.07;4.13;;;21.80;91.30;;;;;;4410376;28;657973;-65
2022/07/07 08:56:29;;;;;;;7.67;3.80;;;22.20;90.40;;;;;;4428746;28;659899;-64
2022/07/07 08:59:17;;;;;;;8.50;3.73;;;22.10;86.40;;;;;;4412702;28;657590;-64
2022/07/07 09:02:04;;;;;;;9.03;3.07;;;22.50;84.80;;;;;;4432862;28;657657;-64
2022/07/07 09:04:52;;;;;;;9.77;3.10;;;22.10;85.20;;;;;;4414710;28;657939;-64
2022/07/07 09:07:46;;;;;;;5.83;2.90;;;22.00;87.00;;;;;;4433620;28;658075;-64
2022/07/07 09:10:34;;;;;;;5.07;3.27;;;21.50;84.60;;;;;;4410390;28;658038;-64
2022/07/07 09:13:25;;;;;;;5.33;3.40;;;21.50;87.10;;;;;;4412070;28;657480;-64
2022/07/07 09:16:14;;;;;;;8.03;3.43;;;20.80;91.00;;;;;;4414679;28;657947;-64
2022/07/07 09:19:02;;;;;;;6.57;3.33;;;20.60;90.30;;;;;;4412809;28;659358;-64
2022/07/07 09:21:49;;;;;;;6.20;3.33;;;20.60;88.10;;;;;;4436661;28;657791;-64
2022/07/07 09:24:51;;;;;;;8.00;3.33;;;21.60;90.20;;;;;;4414312;28;657638;-64
2022/07/07 09:27:53;;;;;;;5.60;2.80;;;22.10;87.00;;;;;;4410428;28;657598;-65
2022/07/07 09:30:43;;;;;;;8.93;3.00;;;22.80;81.50;;;;;;4414006;28;657678;-64
2022/07/07 09:33:30;;;;;;;7.57;2.77;;;23.40;80.60;;;;;;4414346;28;657945;-65
2022/07/07 09:39:25;;;;;;;4.33;2.90;;;22.40;77.10;;;;;;4391116;28;657817;-65
2022/07/07 09:42:20;;;;;;;7.20;2.73;;;21.80;79.30;;;;;;4437663;28;658080;-64
2022/07/07 09:45:08;;;;;;;8.10;2.93;;;21.40;79.10;;;;;;4382265;28;657652;-64
2022/07/07 09:48:00;;;;;;;4.00;2.70;;;20.70;83.90;;;;;;4381078;28;657895;-64
2022/07/07 09:50:47;;;;;;;11.93;3.43;;;21.10;85.70;;;;;;4380087;28;658306;-64
2022/07/07 09:53:34;;;;;;;6.80;3.07;;;22.10;84.80;;;;;;4398567;28;658655;-64
2022/07/07 09:56:22;;;;;;;5.70;2.80;;;22.80;92.70;;;;;;4381363;28;657637;-65
2022/07/07 09:59:10;;;;;;;4.90;2.60;;;23.10;79.70;;;;;;4399526;28;657167;-64
2022/07/07 10:01:57;;;;;;;5.83;2.73;;;23.30;72.80;;;;;;4380599;28;659058;-64
2022/07/07 10:04:47;;;;;;;4.90;3.00;;;23.20;74.00;;;;;;4394948;28;657953;-65
2022/07/07 10:07:34;;;;;;;5.67;2.73;;;21.40;82.20;;;;;;4398785;28;658249;-64
2022/07/07 10:10:22;;;;;;;8.07;3.10;;;22.70;79.90;;;;;;4380450;28;657737;-64
2022/07/07 10:13:09;;;;;;;7.13;3.37;;;23.60;77.40;;;;;;4398205;28;658005;-64
2022/07/07 10:15:56;;;;;;;6.57;2.93;;;23.60;76.30;;;;;;4380398;28;657593;-64
2022/07/07 10:18:43;;;;;;;6.67;3.07;;;22.90;79.00;;;;;;4400257;28;658756;-64
2022/07/07 10:21:31;;;;;;;6.23;3.10;;;22.50;73.80;;;;;;4379833;28;657921;-65
2022/07/07 10:24:19;;;;;;;7.47;3.23;;;22.40;74.30;;;;;;4398700;28;658290;-64
2022/07/07 10:27:07;;;;;;;7.50;2.60;;;21.90;77.50;;;;;;4376887;28;657611;-64
2022/07/07 10:29:54;;;;;;;6.87;3.10;;;21.20;81.50;;;;;;4398884;28;657412;-64
2022/07/07 10:32:42;;;;;;;5.10;3.03;;;21.50;78.80;;;;;;4385285;28;659249;-64
2022/07/07 10:35:31;;;;;;;7.70;3.03;;;21.80;79.50;;;;;;4414648;28;657618;-64
2022/07/07 10:38:20;;;;;;;5.43;2.80;;;22.40;77.90;;;;;;4391604;28;658453;-64
2022/07/07 10:41:07;;;;;;;7.03;2.90;;;22.90;78.60;;;;;;4391495;28;659576;-64
2022/07/07 10:43:59;;;;;;;8.23;2.60;;;22.50;75.50;;;;;;4414443;28;657594;-64
2022/07/07 10:47:00;;;;;;;3.67;2.50;;;22.20;78.20;;;;;;4406280;28;658592;-64
2022/07/07 10:49:49;;;;;;;8.00;2.60;;;21.80;82.10;;;;;;4385928;28;657800;-64
2022/07/07 10:52:41;;;;;;;5.93;2.83;;;21.90;82.50;;;;;;4413005;28;659347;-64
2022/07/07 10:55:56;;;;;;;6.07;2.50;;;21.50;82.70;;;;;;4408701;28;658433;-64
2022/07/07 10:58:57;;;;;;;10.57;2.53;;;21.30;83.30;;;;;;4408585;28;657847;-64
2022/07/07 11:02:08;;;;;;;6.10;2.90;;;21.10;83.30;;;;;;4407370;28;658470;-64
2022/07/07 11:04:55;;;;;;;4.00;2.50;;;20.90;87.00;;;;;;4389682;28;658322;-65
2022/07/07 11:07:42;;;;;;;9.85;2.35;;;21.10;87.50;;;;;;4435600;28;659279;-64
2022/07/07 11:10:48;;;;;;;7.00;2.57;;;21.20;89.30;;;;;;4429853;28;657903;-65
2022/07/07 11:13:37;;;;;;;4.57;2.30;;;21.30;83.90;;;;;;4400243;28;657550;-65
2022/07/07 11:16:25;;;;;;;4.20;2.50;;;22.00;84.40;;;;;;4430034;28;658087;-64
2022/07/07 11:19:14;;;;;;;9.00;2.90;;;22.20;81.90;;;;;;4407439;28;659055;-64
2022/07/07 11:22:01;;;;;;;3.43;2.23;;;22.40;81.50;;;;;;4406236;28;658263;-64
2022/07/07 11:24:48;;;;;;;6.07;2.50;;;23.40;77.10;;;;;;4429671;28;657645;-64
2022/07/07 11:27:37;;;;;;;4.27;2.70;;;24.10;72.30;;;;;;4410330;28;658196;-64
2022/07/07 11:30:26;;;;;;;4.67;2.60;;;24.10;70.60;;;;;;4429513;28;657669;-64
2022/07/07 11:33:13;;;;;;;5.55;2.45;;;25.00;72.90;;;;;;4406202;28;659161;-64
2022/07/07 11:36:16;;;;;;;6.13;2.42;;;25.10;69.10;;;;;;4411594;28;657950;-66
2022/07/07 11:39:05;;;;;;;5.65;2.30;;;25.50;62.30;;;;;;4407990;28;658444;-65
2022/07/07 11:41:52;;;;;;;4.88;2.17;;;25.20;65.20;;;;;;4407994;28;658923;-65
2022/07/07 11:44:39;;;;;;;6.10;2.10;;;24.90;61.50;;;;;;4430722;28;657552;-64
2022/07/07 11:47:28;;;;;;;4.07;2.15;;;25.70;59.10;;;;;;4377472;28;657247;-64
2022/07/07 11:50:15;;;;;;;5.75;2.50;;;25.00;58.80;;;;;;4377490;28;657451;-64
2022/07/07 11:53:04;;;;;;;10.82;2.28;;;23.00;61.90;;;;;;4395905;28;659406;-64
2022/07/07 11:55:52;;;;;;;5.78;2.40;;;22.80;65.40;;;;;;4375992;28;659840;-64
2022/07/07 11:58:39;;;;;;;6.80;2.40;;;23.00;67.70;;;;;;4395794;28;657840;-64
2022/07/07 12:01:26;;;;;;;4.97;2.47;;;22.70;67.80;;;;;;4377279;28;657933;-64
2022/07/07 12:04:15;;;;;;;5.57;2.60;;;22.30;66.50;;;;;;4399946;28;659084;-64
2022/07/07 12:07:02;;;;;;;2.43;2.20;;;22.50;69.10;;;;;;4371791;28;658338;-64
2022/07/07 12:09:50;;;;;;;6.90;2.50;;;22.90;71.10;;;;;;4391478;28;658104;-66
2022/07/07 12:12:37;;;;;;;4.57;2.70;;;23.00;67.80;;;;;;4400165;28;659310;-64
2022/07/07 12:15:27;;;;;;;8.47;3.03;;;22.90;67.00;;;;;;4395722;28;658048;-64
2022/07/07 12:18:14;;;;;;;5.03;2.63;;;23.80;67.00;;;;;;4372780;28;658644;-64
2022/07/07 12:21:03;;;;;;;4.82;2.40;;;24.00;68.90;;;;;;4376881;28;657321;-65
2022/07/07 12:23:52;;;;;;;8.50;2.40;;;25.20;69.10;;;;;;4377122;28;657812;-64
2022/07/07 12:26:43;;;;;;;4.55;2.45;;;25.90;63.50;;;;;;4395805;28;657648;-64
2022/07/07 12:29:31;;;;;;;3.78;2.13;;;25.80;59.40;;;;;;4354828;28;657877;-65
2022/07/07 12:32:23;;;;;;;7.72;2.17;;;26.20;62.40;;;;;;4397240;28;658230;-64
2022/07/07 12:35:14;;;;;;;5.97;2.30;;;24.90;63.50;;;;;;4357506;28;658318;-66
2022/07/07 12:38:04;;;;;;;5.28;2.53;;;25.00;61.60;;;;;;4380356;28;658606;-64
2022/07/07 12:40:57;;;;;;;8.95;2.35;;;25.30;59.80;;;;;;4380537;28;657769;-64
2022/07/07 12:43:44;;;;;;;5.07;2.38;;;25.40;61.50;;;;;;4376327;28;657903;-64
2022/07/07 12:46:35;;;;;;;5.50;2.42;;;24.60;61.40;;;;;;4389098;28;657411;-64
2022/07/07 12:49:22;;;;;;;3.47;2.13;;;23.60;64.60;;;;;;4393811;28;659756;-64
2022/07/07 12:52:12;;;;;;;5.63;2.55;;;23.70;64.90;;;;;;4414150;28;657774;-64
2022/07/07 12:55:08;;;;;;;5.38;2.30;;;23.10;63.90;;;;;;4416196;28;657756;-64
2022/07/07 12:57:55;;;;;;;3.45;2.38;;;23.10;69.40;;;;;;4375011;28;658034;-64
2022/07/07 13:00:43;;;;;;;3.33;2.20;;;23.40;69.50;;;;;;4420172;28;659414;-63
2022/07/07 13:03:31;;;;;;;3.05;2.40;;;23.00;69.70;;;;;;4397337;28;657742;-64
2022/07/07 13:06:18;;;;;;;6.70;2.50;;;23.10;67.60;;;;;;4420186;28;658245;-64
2022/07/07 13:09:06;;;;;;;6.60;2.63;;;23.40;66.70;;;;;;4401679;28;657717;-65
2022/07/07 13:11:54;;;;;;;14.88;2.80;;;23.00;65.20;;;;;;4415729;28;659557;-64
2022/07/07 13:14:42;;;;;;;8.77;2.88;;;22.60;72.20;;;;;;4392241;28;659793;-64
2022/07/07 13:17:29;;;;;;;5.90;2.67;;;22.60;71.40;;;;;;4414980;28;658066;-63
2022/07/07 13:20:16;;;;;;;8.27;2.40;;;22.80;74.70;;;;;;4397197;28;657690;-64
2022/07/07 13:23:03;;;;;;;4.82;2.50;;;22.70;71.70;;;;;;4415431;28;659609;-63
2022/07/07 13:25:50;;;;;;;6.80;2.70;;;22.50;75.80;;;;;;4397116;28;657788;-64
2022/07/07 13:28:39;;;;;;;3.03;2.40;;;22.10;77.90;;;;;;4420023;28;658112;-63
2022/07/07 13:31:26;;;;;;;6.63;2.53;;;21.70;76.40;;;;;;4394679;28;657929;-64
2022/07/07 13:34:13;;;;;;;4.93;2.70;;;21.40;77.50;;;;;;4420150;28;657583;-64
2022/07/07 13:37:00;;;;;;;4.83;2.63;;;21.20;82.90;;;;;;4398406;28;658402;-65
2022/07/07 13:39:47;;;;;;;8.63;2.60;;;20.50;79.30;;;;;;4419400;28;658021;-63
2022/07/07 13:42:34;;;;;;;3.83;2.50;;;20.50;82.60;;;;;;4415321;28;658194;-63
2022/07/07 13:45:23;;;;;;;3.37;2.40;;;20.60;82.70;;;;;;4396444;28;657681;-63
2022/07/07 13:48:10;;;;;;;4.10;2.50;;;20.40;90.00;;;;;;4416613;28;657804;-63
2022/07/07 13:50:57;;;;;;;6.90;3.00;;;20.30;87.50;;;;;;4437013;28;658154;-63
2022/07/07 13:53:44;;;;;;;4.77;2.83;;;19.80;91.90;;;;;;4432689;28;658075;-63
2022/07/07 13:56:31;;;;;;;8.77;3.33;;;19.10;98.50;;;;;;4412988;28;657548;-63
2022/07/07 13:59:18;;;;;;;9.33;2.97;;;18.90;99.90;;;;;;4432644;28;659460;-63
2022/07/07 14:02:07;;;;;;;7.90;3.30;;;18.80;99.90;;;;;;4414067;28;657631;-64
2022/07/07 14:04:54;;;;;;;7.53;2.97;;;18.60;99.90;;;;;;4432614;28;657973;-63
2022/07/07 14:07:42;;;;;;;4.77;3.10;;;18.50;99.90;;;;;;4414071;28;657607;-63
2022/07/07 14:10:29;;;;;;;9.47;3.37;;;18.30;99.90;;;;;;4431340;28;658522;-64
2022/07/07 14:13:16;;;;;;;3.97;2.93;;;18.20;99.90;;;;;;4413252;28;657587;-64
2022/07/07 14:16:03;;;;;;;3.37;2.93;;;17.90;99.90;;;;;;4435998;28;658554;-63